Time;durP1;ratioP1;P1;durP2;ratioP2;P2;SDS_P1;SDS_P2;PMS_P1;PMS_P2;Temp;Humidity;BMP_temperature;BMP_pressure;BME280_temperature;BME280_humidity;BME280_pressure;Samples;Min_cycle;Max_cycle;Signal;HPM_P1;HPM_P2
2022/12/05 00:00:15;;;;;;;0.20;0.10;;;;;;;;;;5011632;28;20104;-85
2022/12/05 00:02:42;;;;;;;0.20;0.15;;;;;;;;;;4990715;28;20036;-88
2022/12/05 00:05:09;;;;;;;0.55;0.50;;;;;;;;;;4976195;28;20046;-85
2022/12/05 00:07:35;;;;;;;0.20;0.10;;;;;;;;;;4982962;28;20046;-83
2022/12/05 00:10:01;;;;;;;0.20;0.10;;;;;;;;;;4984679;28;20570;-84
2022/12/05 00:12:27;;;;;;;0.40;0.35;;;;;;;;;;4973240;28;20041;-84
2022/12/05 00:14:53;;;;;;;0.25;0.20;;;;;;;;;;4972999;28;20042;-83
2022/12/05 00:17:19;;;;;;;1.75;1.65;;;;;;;;;;4993505;28;20574;-82
2022/12/05 00:19:45;;;;;;;0.20;0.20;;;;;;;;;;4994481;28;20034;-84
2022/12/05 00:22:11;;;;;;;0.20;0.10;;;;;;;;;;4988068;28;20639;-84
2022/12/05 00:24:38;;;;;;;0.30;0.30;;;;;;;;;;4978233;28;20492;-80
2022/12/05 00:27:04;;;;;;;0.20;0.15;;;;;;;;;;4985919;28;20132;-83
2022/12/05 00:29:30;;;;;;;0.43;0.43;;;;;;;;;;4991470;28;20053;-81
2022/12/05 00:31:56;;;;;;;0.20;0.10;;;;;;;;;;4973428;28;20112;-85
2022/12/05 00:34:22;;;;;;;0.52;0.43;;;;;;;;;;4956117;28;20125;-84
2022/12/05 00:36:48;;;;;;;0.20;0.10;;;;;;;;;;4993459;28;20045;-86
2022/12/05 00:39:14;;;;;;;0.22;0.20;;;;;;;;;;4991869;28;20053;-86
2022/12/05 00:41:41;;;;;;;0.20;0.10;;;;;;;;;;4965432;28;20034;-83
2022/12/05 00:44:08;;;;;;;0.20;0.10;;;;;;;;;;4978713;28;20044;-84
2022/12/05 00:46:35;;;;;;;0.35;0.25;;;;;;;;;;5006629;28;20038;-83
2022/12/05 00:49:02;;;;;;;0.20;0.10;;;;;;;;;;4974858;28;20077;-84
2022/12/05 00:51:29;;;;;;;0.20;0.20;;;;;;;;;;5002616;28;20097;-84
2022/12/05 00:54:00;;;;;;;0.57;0.35;;;;;;;;;;4992605;28;20038;-82
2022/12/05 00:56:27;;;;;;;0.85;0.52;;;;;;;;;;5011086;28;20041;-87
2022/12/05 00:58:54;;;;;;;1.00;0.95;;;;;;;;;;5009392;28;20049;-85
2022/12/05 01:01:21;;;;;;;0.20;0.10;;;;;;;;;;4981267;28;21806;-85
2022/12/05 01:03:48;;;;;;;0.20;0.10;;;;;;;;;;4965503;28;20096;-86
2022/12/05 01:06:15;;;;;;;0.20;0.20;;;;;;;;;;4964183;28;20042;-86
2022/12/05 01:08:41;;;;;;;0.20;0.10;;;;;;;;;;4995116;28;20052;-85
2022/12/05 01:11:08;;;;;;;0.20;0.10;;;;;;;;;;4991017;28;20105;-83
2022/12/05 01:13:35;;;;;;;0.70;0.70;;;;;;;;;;5009988;28;20284;-84
2022/12/05 01:16:01;;;;;;;0.20;0.10;;;;;;;;;;5006750;28;20038;-84
2022/12/05 01:18:28;;;;;;;0.20;0.10;;;;;;;;;;4993345;28;20038;-85
2022/12/05 01:20:54;;;;;;;0.75;0.75;;;;;;;;;;4994644;28;20054;-82
2022/12/05 01:23:20;;;;;;;0.20;0.10;;;;;;;;;;4977020;28;20388;-85
2022/12/05 01:25:47;;;;;;;0.20;0.10;;;;;;;;;;4992953;28;20559;-84
2022/12/05 01:28:14;;;;;;;0.20;0.20;;;;;;;;;;4992604;28;20049;-82
2022/12/05 01:33:14;;;;;;;0.20;0.10;;;;;;;;;;5029370;28;20045;-80
2022/12/05 01:35:40;;;;;;;0.20;0.10;;;;;;;;;;5013621;28;20036;-84
2022/12/05 01:38:06;;;;;;;2.78;2.40;;;;;;;;;;5009536;28;20368;-81
2022/12/05 01:40:37;;;;;;;0.20;0.17;;;;;;;;;;4997549;28;20041;-80
2022/12/05 01:43:03;;;;;;;0.20;0.10;;;;;;;;;;4996447;28;20671;-83
2022/12/05 01:45:32;;;;;;;0.20;0.10;;;;;;;;;;4990340;28;20120;-81
2022/12/05 01:47:59;;;;;;;1.65;1.33;;;;;;;;;;4988537;28;20049;-82
2022/12/05 01:50:25;;;;;;;0.43;0.43;;;;;;;;;;4974536;28;20143;-82
2022/12/05 01:52:51;;;;;;;0.38;0.20;;;;;;;;;;4988638;28;20139;-81
2022/12/05 01:55:18;;;;;;;0.50;0.50;;;;;;;;;;4988375;28;20674;-81
2022/12/05 01:57:46;;;;;;;0.20;0.10;;;;;;;;;;4974817;28;20053;-81
2022/12/05 02:00:16;;;;;;;0.82;0.82;;;;;;;;;;4991380;28;20061;-83
2022/12/05 02:02:48;;;;;;;2.88;1.98;;;;;;;;;;4976688;28;20484;-81
2022/12/05 02:05:17;;;;;;;0.20;0.20;;;;;;;;;;4991733;28;20042;-82
2022/12/05 02:07:43;;;;;;;0.43;0.28;;;;;;;;;;4994660;28;20126;-80
2022/12/05 02:10:09;;;;;;;0.20;0.17;;;;;;;;;;4989245;28;20036;-82
2022/12/05 02:12:36;;;;;;;0.20;0.10;;;;;;;;;;4986598;28;20950;-80
2022/12/05 02:15:21;;;;;;;0.20;0.10;;;;;;;;;;4970527;28;20034;-81
2022/12/05 02:17:59;;;;;;;0.30;0.28;;;;;;;;;;4993138;28;20049;-81
2022/12/05 02:20:35;;;;;;;0.20;0.10;;;;;;;;;;4976160;28;21708;-81
2022/12/05 02:23:00;;;;;;;0.20;0.10;;;;;;;;;;4991192;28;20140;-81
2022/12/05 02:25:45;;;;;;;0.30;0.28;;;;;;;;;;4999619;28;20199;-82
2022/12/05 02:28:30;;;;;;;0.20;0.10;;;;;;;;;;4985134;28;20080;-81
2022/12/05 02:31:05;;;;;;;0.20;0.10;;;;;;;;;;4980769;28;20169;-81
2022/12/05 02:33:50;;;;;;;0.38;0.38;;;;;;;;;;4997598;28;20128;-80
2022/12/05 02:36:22;;;;;;;0.20;0.10;;;;;;;;;;4975970;28;20045;-82
2022/12/05 02:39:11;;;;;;;0.20;0.10;;;;;;;;;;4973260;28;20045;-83
2022/12/05 02:41:39;;;;;;;0.20;0.10;;;;;;;;;;4987967;28;20431;-83
2022/12/05 02:44:07;;;;;;;8.07;0.63;;;;;;;;;;4994878;28;20511;-83
2022/12/05 02:46:35;;;;;;;0.20;0.10;;;;;;;;;;4971330;28;20054;-82
2022/12/05 02:49:03;;;;;;;0.30;0.17;;;;;;;;;;4988369;28;20041;-81
2022/12/05 02:51:32;;;;;;;0.40;0.40;;;;;;;;;;4976635;28;20054;-81
2022/12/05 02:54:00;;;;;;;0.93;0.25;;;;;;;;;;4975934;28;20101;-82
2022/12/05 02:56:27;;;;;;;0.68;0.40;;;;;;;;;;4991147;28;20049;-82
2022/12/05 02:58:54;;;;;;;0.35;0.20;;;;;;;;;;4975164;28;20049;-81
2022/12/05 03:01:26;;;;;;;0.57;0.57;;;;;;;;;;4992881;28;20057;-82
2022/12/05 03:03:52;;;;;;;0.20;0.10;;;;;;;;;;4994894;28;20041;-82
2022/12/05 03:06:26;;;;;;;0.32;0.32;;;;;;;;;;4994274;28;20209;-81
2022/12/05 03:09:06;;;;;;;0.20;0.10;;;;;;;;;;4993764;28;20684;-83
2022/12/05 03:11:40;;;;;;;0.90;0.75;;;;;;;;;;4995473;28;20052;-82
2022/12/05 03:14:07;;;;;;;0.20;0.20;;;;;;;;;;4970960;28;21905;-82
2022/12/05 03:16:36;;;;;;;0.20;0.10;;;;;;;;;;4978514;28;20065;-82
2022/12/05 03:19:07;;;;;;;0.20;0.20;;;;;;;;;;5009517;28;20034;-81
2022/12/05 03:21:39;;;;;;;0.30;0.30;;;;;;;;;;4992605;28;20041;-82
2022/12/05 03:24:07;;;;;;;0.20;0.10;;;;;;;;;;4996971;28;20038;-84
2022/12/05 03:26:33;;;;;;;0.20;0.10;;;;;;;;;;4991418;28;20095;-82
2022/12/05 03:29:07;;;;;;;0.63;0.47;;;;;;;;;;4994701;28;20587;-80
2022/12/05 03:31:39;;;;;;;0.20;0.10;;;;;;;;;;4979782;28;20049;-81
2022/12/05 03:34:08;;;;;;;0.20;0.10;;;;;;;;;;5011541;28;20048;-82
2022/12/05 03:36:38;;;;;;;1.58;0.68;;;;;;;;;;4995408;28;20119;-82
2022/12/05 03:39:43;;;;;;;0.20;0.17;;;;;;;;;;4998154;28;20044;-81
2022/12/05 03:42:12;;;;;;;0.20;0.10;;;;;;;;;;4956513;28;20603;-82
2022/12/05 03:44:43;;;;;;;0.20;0.10;;;;;;;;;;4956557;28;20065;-82
2022/12/05 03:47:17;;;;;;;0.43;0.43;;;;;;;;;;4968721;28;20045;-82
2022/12/05 03:49:45;;;;;;;0.20;0.10;;;;;;;;;;5001687;28;20077;-81
2022/12/05 03:52:14;;;;;;;0.20;0.10;;;;;;;;;;5010944;28;20139;-81
2022/12/05 03:54:49;;;;;;;0.20;0.10;;;;;;;;;;4975267;28;20131;-81
2022/12/05 03:57:15;;;;;;;0.20;0.10;;;;;;;;;;4974220;28;20561;-83
2022/12/05 03:59:48;;;;;;;0.65;0.65;;;;;;;;;;4996992;28;20038;-81
2022/12/05 04:02:18;;;;;;;0.20;0.10;;;;;;;;;;4977846;28;20089;-81
2022/12/05 04:04:50;;;;;;;0.20;0.10;;;;;;;;;;4997592;28;20040;-81
2022/12/05 04:07:17;;;;;;;0.30;0.30;;;;;;;;;;4994301;28;20107;-81
2022/12/05 04:09:46;;;;;;;0.20;0.10;;;;;;;;;;4993306;28;20128;-83
2022/12/05 04:12:15;;;;;;;0.20;0.20;;;;;;;;;;4982840;28;20145;-82
2022/12/05 04:14:43;;;;;;;0.20;0.10;;;;;;;;;;4995675;28;20777;-84
2022/12/05 04:17:14;;;;;;;0.20;0.10;;;;;;;;;;4977204;28;20037;-81
2022/12/05 04:22:28;;;;;;;0.20;0.15;;;;;;;;;;5016559;28;20037;-80
2022/12/05 04:28:13;;;;;;;0.20;0.10;;;;;;;;;;5013431;28;20045;-82
2022/12/05 04:30:45;;;;;;;0.20;0.10;;;;;;;;;;4944867;28;20137;-85
2022/12/05 04:33:11;;;;;;;;;;;;;;;;;;5000872;28;20041;-81
2022/12/05 04:35:41;;;;;;;0.20;0.10;;;;;;;;;;4990359;28;19925;-84
2022/12/05 04:38:12;;;;;;;0.20;0.10;;;;;;;;;;4978279;28;20033;-80
2022/12/05 04:40:41;;;;;;;0.20;0.10;;;;;;;;;;4980752;28;20047;-84
2022/12/05 04:43:07;;;;;;;0.20;0.10;;;;;;;;;;4995900;28;20045;-81
2022/12/05 04:45:35;;;;;;;0.20;0.10;;;;;;;;;;4974291;28;20038;-82
2022/12/05 04:48:04;;;;;;;0.25;0.13;;;;;;;;;;4977994;28;20038;-81
2022/12/05 04:50:31;;;;;;;0.20;0.20;;;;;;;;;;4996021;28;20072;-82
2022/12/05 04:52:59;;;;;;;0.20;0.10;;;;;;;;;;4994039;28;22095;-82
2022/12/05 04:55:25;;;;;;;0.20;0.10;;;;;;;;;;4982342;28;20053;-83
2022/12/05 04:57:57;;;;;;;0.20;0.10;;;;;;;;;;4991289;28;20033;-81
2022/12/05 05:00:23;;;;;;;0.20;0.10;;;;;;;;;;4987108;28;20053;-83
2022/12/05 05:03:11;;;;;;;0.20;0.10;;;;;;;;;;4985972;28;20821;-82
2022/12/05 05:05:38;;;;;;;0.20;0.10;;;;;;;;;;4995385;28;20064;-83
2022/12/05 05:08:04;;;;;;;0.20;0.10;;;;;;;;;;5008742;28;20041;-81
2022/12/05 05:10:37;;;;;;;1.38;1.00;;;;;;;;;;4992028;28;20137;-82
2022/12/05 05:13:03;;;;;;;;;;;;;;;;;;4994055;28;20041;-82
2022/12/05 05:15:32;;;;;;;0.20;0.10;;;;;;;;;;4990718;28;19932;-82
2022/12/05 05:17:58;;;;;;;0.20;0.10;;;;;;;;;;4993800;28;20041;-84
2022/12/05 05:20:24;;;;;;;0.30;0.30;;;;;;;;;;4990930;28;20052;-83
2022/12/05 05:22:54;;;;;;;0.20;0.10;;;;;;;;;;4993822;28;20095;-82
2022/12/05 05:25:21;;;;;;;0.20;0.10;;;;;;;;;;4998748;28;20175;-81
2022/12/05 05:27:47;;;;;;;0.20;0.10;;;;;;;;;;5008376;28;20034;-82
2022/12/05 05:30:14;;;;;;;0.20;0.10;;;;;;;;;;4989727;28;20037;-82
2022/12/05 05:32:39;;;;;;;0.20;0.10;;;;;;;;;;4967014;28;20121;-80
2022/12/05 05:35:06;;;;;;;0.20;0.10;;;;;;;;;;4988635;28;20034;-81
2022/12/05 05:37:32;;;;;;;0.20;0.10;;;;;;;;;;5001820;28;20038;-80
2022/12/05 05:39:58;;;;;;;0.20;0.10;;;;;;;;;;4966536;28;20512;-80
2022/12/05 05:42:24;;;;;;;0.20;0.13;;;;;;;;;;4966645;28;20050;-81
2022/12/05 05:44:50;;;;;;;0.20;0.10;;;;;;;;;;4968324;28;20041;-81
2022/12/05 05:47:16;;;;;;;0.20;0.10;;;;;;;;;;4989120;28;20044;-82
2022/12/05 05:49:42;;;;;;;0.20;0.10;;;;;;;;;;5009204;28;20046;-83
2022/12/05 05:52:08;;;;;;;0.20;0.10;;;;;;;;;;4992594;28;20989;-81
2022/12/05 05:54:34;;;;;;;0.20;0.20;;;;;;;;;;4970811;28;20069;-81
2022/12/05 05:57:00;;;;;;;0.20;0.10;;;;;;;;;;4979563;28;20041;-80
2022/12/05 05:59:26;;;;;;;0.20;0.10;;;;;;;;;;4987486;28;20069;-82
2022/12/05 06:01:52;;;;;;;0.20;0.10;;;;;;;;;;4985752;28;20041;-80
2022/12/05 06:04:18;;;;;;;0.20;0.10;;;;;;;;;;4977673;28;20393;-81
2022/12/05 06:06:44;;;;;;;0.20;0.10;;;;;;;;;;4987689;28;20041;-80
2022/12/05 06:09:10;;;;;;;0.20;0.10;;;;;;;;;;4984973;28;20068;-81
2022/12/05 06:11:36;;;;;;;0.20;0.10;;;;;;;;;;4983284;28;20041;-80
2022/12/05 06:14:02;;;;;;;0.20;0.10;;;;;;;;;;4987463;28;20040;-84
2022/12/05 06:16:28;;;;;;;0.20;0.10;;;;;;;;;;4982414;28;20046;-81
2022/12/05 06:18:54;;;;;;;0.20;0.10;;;;;;;;;;4995360;28;20040;-83
2022/12/05 06:21:24;;;;;;;0.20;0.10;;;;;;;;;;4975521;28;20381;-86
2022/12/05 06:23:50;;;;;;;0.20;0.10;;;;;;;;;;4977851;28;20050;-81
2022/12/05 06:26:17;;;;;;;0.20;0.10;;;;;;;;;;4977243;28;20045;-81
2022/12/05 06:28:44;;;;;;;0.20;0.10;;;;;;;;;;5002451;28;20071;-81
2022/12/05 06:31:14;;;;;;;0.20;0.10;;;;;;;;;;5004114;28;20075;-83
2022/12/05 06:33:40;;;;;;;0.20;0.10;;;;;;;;;;5005682;28;20034;-82
2022/12/05 06:36:08;;;;;;;0.20;0.10;;;;;;;;;;5003648;28;20530;-82
2022/12/05 06:38:34;;;;;;;0.20;0.10;;;;;;;;;;4994866;28;20514;-82
2022/12/05 06:41:03;;;;;;;0.20;0.10;;;;;;;;;;4990903;28;20503;-82
2022/12/05 06:43:29;;;;;;;0.20;0.10;;;;;;;;;;4965262;28;20530;-84
2022/12/05 06:45:56;;;;;;;0.20;0.10;;;;;;;;;;4994964;28;20061;-84
2022/12/05 06:48:22;;;;;;;0.20;0.20;;;;;;;;;;4995255;28;20072;-84
2022/12/05 06:50:49;;;;;;;0.20;0.10;;;;;;;;;;4980261;28;20068;-82
2022/12/05 06:53:15;;;;;;;0.20;0.10;;;;;;;;;;4999842;28;20049;-82
2022/12/05 06:55:41;;;;;;;0.35;0.35;;;;;;;;;;5015383;28;20056;-81
2022/12/05 06:58:07;;;;;;;0.20;0.10;;;;;;;;;;4993407;28;20685;-83
2022/12/05 07:03:18;;;;;;;0.20;0.10;;;;;;;;;;4991792;28;20037;-83
2022/12/05 07:05:44;;;;;;;0.20;0.10;;;;;;;;;;5002697;28;20389;-82
2022/12/05 07:08:10;;;;;;;0.20;0.10;;;;;;;;;;4977109;28;20056;-82
2022/12/05 07:10:36;;;;;;;0.20;0.10;;;;;;;;;;4998429;28;20123;-83
2022/12/05 07:13:02;;;;;;;0.20;0.10;;;;;;;;;;4992182;28;20041;-86
2022/12/05 07:15:30;;;;;;;0.20;0.10;;;;;;;;;;5007382;28;20507;-83
2022/12/05 07:17:56;;;;;;;0.20;0.10;;;;;;;;;;4974179;28;20064;-82
2022/12/05 07:20:22;;;;;;;0.20;0.10;;;;;;;;;;4992516;28;20053;-86
2022/12/05 07:22:48;;;;;;;0.20;0.10;;;;;;;;;;4972039;28;20496;-81
2022/12/05 07:25:15;;;;;;;0.20;0.10;;;;;;;;;;4982016;28;20083;-82
2022/12/05 07:27:41;;;;;;;1.67;0.68;;;;;;;;;;4978011;28;20037;-82
2022/12/05 07:30:08;;;;;;;0.20;0.10;;;;;;;;;;5015711;28;20043;-83
2022/12/05 07:32:34;;;;;;;0.20;0.10;;;;;;;;;;4991588;28;20072;-84
2022/12/05 07:35:00;;;;;;;0.20;0.10;;;;;;;;;;4990965;28;20045;-84
2022/12/05 07:37:26;;;;;;;0.20;0.10;;;;;;;;;;4988226;28;20436;-84
2022/12/05 07:39:52;;;;;;;0.20;0.20;;;;;;;;;;4996190;28;20124;-85
2022/12/05 07:42:18;;;;;;;0.30;0.30;;;;;;;;;;4974778;28;20046;-78
2022/12/05 07:44:44;;;;;;;0.20;0.15;;;;;;;;;;4994374;28;20495;-85
2022/12/05 07:47:10;;;;;;;0.20;0.10;;;;;;;;;;5005212;28;20129;-83
2022/12/05 07:49:36;;;;;;;0.20;0.10;;;;;;;;;;4993909;28;20071;-88
2022/12/05 07:52:02;;;;;;;0.30;0.20;;;;;;;;;;4976800;28;21474;-84
2022/12/05 07:54:28;;;;;;;0.20;0.10;;;;;;;;;;4968857;28;20084;-85
2022/12/05 07:56:54;;;;;;;0.60;0.50;;;;;;;;;;4990106;28;20061;-83
2022/12/05 07:59:20;;;;;;;0.20;0.10;;;;;;;;;;4972657;28;20475;-85
2022/12/05 08:01:46;;;;;;;0.20;0.10;;;;;;;;;;4991631;28;20196;-83
2022/12/05 08:04:12;;;;;;;0.20;0.17;;;;;;;;;;4971258;28;20041;-85
2022/12/05 08:06:38;;;;;;;0.20;0.10;;;;;;;;;;4972139;28;20034;-86
2022/12/05 08:09:04;;;;;;;0.20;0.10;;;;;;;;;;4972205;28;20442;-83
2022/12/05 08:11:34;;;;;;;0.20;0.10;;;;;;;;;;5003200;28;20041;-85
2022/12/05 08:14:00;;;;;;;0.20;0.10;;;;;;;;;;4986903;28;20061;-86
2022/12/05 08:16:27;;;;;;;0.20;0.10;;;;;;;;;;4976482;28;20076;-82
2022/12/05 08:18:54;;;;;;;0.20;0.10;;;;;;;;;;4993148;28;20037;-84
2022/12/05 08:21:20;;;;;;;0.20;0.10;;;;;;;;;;4993706;28;20084;-84
2022/12/05 08:23:46;;;;;;;0.20;0.10;;;;;;;;;;4979322;28;20041;-84
2022/12/05 08:26:14;;;;;;;0.55;0.43;;;;;;;;;;4994036;28;20067;-85
2022/12/05 08:28:40;;;;;;;0.35;0.30;;;;;;;;;;4989827;28;20048;-84
2022/12/05 08:31:13;;;;;;;0.20;0.10;;;;;;;;;;5011062;28;20068;-84
2022/12/05 08:33:43;;;;;;;0.20;0.10;;;;;;;;;;4986679;28;20049;-84
2022/12/05 08:36:10;;;;;;;0.20;0.20;;;;;;;;;;5017090;28;20049;-85
2022/12/05 08:38:36;;;;;;;0.20;0.10;;;;;;;;;;5004546;28;20033;-89
2022/12/05 08:41:03;;;;;;;0.20;0.10;;;;;;;;;;5003170;28;20106;-84
2022/12/05 08:43:30;;;;;;;0.20;0.10;;;;;;;;;;5007372;28;20042;-86
2022/12/05 08:45:56;;;;;;;0.20;0.10;;;;;;;;;;5018409;28;20038;-84
2022/12/05 08:48:43;;;;;;;0.20;0.10;;;;;;;;;;4984435;28;20049;-84
2022/12/05 08:51:12;;;;;;;0.20;0.10;;;;;;;;;;5005199;28;20077;-84
2022/12/05 08:53:38;;;;;;;0.20;0.10;;;;;;;;;;4990054;28;20041;-83
2022/12/05 08:56:05;;;;;;;0.20;0.10;;;;;;;;;;5016426;28;20048;-84
2022/12/05 08:58:31;;;;;;;0.30;0.30;;;;;;;;;;4998555;28;20123;-82
2022/12/05 09:01:14;;;;;;;0.20;0.10;;;;;;;;;;4998337;28;20072;-85
2022/12/05 09:03:41;;;;;;;0.20;0.10;;;;;;;;;;5019739;28;20041;-87
2022/12/05 09:06:08;;;;;;;0.20;0.10;;;;;;;;;;4990094;28;20054;-85
2022/12/05 09:08:37;;;;;;;0.20;0.10;;;;;;;;;;5007514;28;20038;-87
2022/12/05 09:11:05;;;;;;;0.20;0.10;;;;;;;;;;4988852;28;20060;-83
2022/12/05 09:13:31;;;;;;;0.20;0.10;;;;;;;;;;4984629;28;20049;-84
2022/12/05 09:15:57;;;;;;;0.20;0.20;;;;;;;;;;4981096;28;20092;-82
2022/12/05 09:18:23;;;;;;;0.20;0.10;;;;;;;;;;4988565;28;20124;-85
2022/12/05 09:20:51;;;;;;;0.65;0.65;;;;;;;;;;4989327;28;20438;-85
2022/12/05 09:23:17;;;;;;;0.20;0.10;;;;;;;;;;4983182;28;20444;-83
2022/12/05 09:25:43;;;;;;;0.20;0.20;;;;;;;;;;4985351;28;20034;-86
2022/12/05 09:28:09;;;;;;;0.20;0.10;;;;;;;;;;4998353;28;20034;-84
2022/12/05 09:30:35;;;;;;;0.20;0.10;;;;;;;;;;4997499;28;20034;-85
2022/12/05 09:33:01;;;;;;;0.20;0.10;;;;;;;;;;4979688;28;20033;-86
2022/12/05 09:35:27;;;;;;;0.20;0.10;;;;;;;;;;5003971;28;20045;-87
2022/12/05 09:37:55;;;;;;;0.20;0.10;;;;;;;;;;4998243;28;20042;-82
2022/12/05 09:40:22;;;;;;;0.20;0.10;;;;;;;;;;5007472;28;20033;-84
2022/12/05 09:43:03;;;;;;;0.20;0.10;;;;;;;;;;5019433;28;20072;-85
2022/12/05 09:45:32;;;;;;;0.20;0.10;;;;;;;;;;4979550;28;20866;-85
2022/12/05 09:48:01;;;;;;;;;;;;;;;;;;5001041;28;20493;-84
2022/12/05 09:50:40;;;;;;;0.20;0.10;;;;;;;;;;4986614;28;19963;-87
2022/12/05 09:53:11;;;;;;;0.20;0.10;;;;;;;;;;4985638;28;20055;-87
2022/12/05 09:55:46;;;;;;;0.20;0.10;;;;;;;;;;4981485;28;20128;-85
2022/12/05 09:58:32;;;;;;;0.50;0.35;;;;;;;;;;5016736;28;20042;-85
2022/12/05 10:01:18;;;;;;;0.25;0.15;;;;;;;;;;5002080;28;20042;-86
2022/12/05 10:04:07;;;;;;;0.20;0.10;;;;;;;;;;4959999;28;20033;-86
2022/12/05 10:07:06;;;;;;;0.20;0.10;;;;;;;;;;5098987;27;20400;-86
2022/12/05 10:09:38;;;;;;;0.20;0.10;;;;;;;;;;5077397;28;20051;-83
2022/12/05 10:12:23;;;;;;;0.20;0.10;;;;;;;;;;5104955;27;20114;-84
2022/12/05 10:14:52;;;;;;;0.20;0.10;;;;;;;;;;5072552;28;20039;-85
2022/12/05 10:17:24;;;;;;;0.20;0.10;;;;;;;;;;5094900;28;20047;-86
2022/12/05 10:19:52;;;;;;;0.20;0.10;;;;;;;;;;5086556;28;20092;-85
2022/12/05 10:22:22;;;;;;;1.17;0.45;;;;;;;;;;5080962;28;20040;-84
2022/12/05 10:24:50;;;;;;;0.20;0.10;;;;;;;;;;5095073;28;20035;-85
2022/12/05 10:27:19;;;;;;;0.20;0.10;;;;;;;;;;5070756;28;20039;-84
2022/12/05 10:30:01;;;;;;;0.20;0.10;;;;;;;;;;5088049;28;20409;-85
2022/12/05 10:32:32;;;;;;;0.20;0.10;;;;;;;;;;5100064;27;20056;-86
2022/12/05 10:35:01;;;;;;;0.35;0.20;;;;;;;;;;5103023;27;20640;-85
2022/12/05 10:37:29;;;;;;;0.20;0.10;;;;;;;;;;5092987;28;20408;-86
2022/12/05 10:39:55;;;;;;;0.20;0.10;;;;;;;;;;5091469;28;20036;-85
2022/12/05 10:42:29;;;;;;;0.20;0.10;;;;;;;;;;5073161;28;20089;-87
2022/12/05 10:44:57;;;;;;;0.20;0.10;;;;;;;;;;5073444;28;20040;-87
2022/12/05 10:47:23;;;;;;;0.20;0.10;;;;;;;;;;5073260;28;20059;-85
2022/12/05 10:49:52;;;;;;;0.20;0.17;;;;;;;;;;5091846;28;20521;-87
2022/12/05 10:52:18;;;;;;;0.20;0.10;;;;;;;;;;5072999;28;20036;-84
2022/12/05 10:54:54;;;;;;;0.20;0.10;;;;;;;;;;5086189;28;20320;-86
2022/12/05 10:57:28;;;;;;;0.20;0.10;;;;;;;;;;5088019;28;20078;-84
2022/12/05 10:59:55;;;;;;;0.20;0.10;;;;;;;;;;5088474;28;20071;-83
2022/12/05 11:02:29;;;;;;;0.28;0.28;;;;;;;;;;5095448;27;20401;-84
2022/12/05 11:04:57;;;;;;;0.20;0.10;;;;;;;;;;5098022;28;20137;-86
2022/12/05 11:07:29;;;;;;;0.20;0.20;;;;;;;;;;5085082;28;20032;-83
2022/12/05 11:09:55;;;;;;;0.20;0.10;;;;;;;;;;5104872;27;20527;-84
2022/12/05 11:12:24;;;;;;;0.20;0.10;;;;;;;;;;5089697;28;20036;-87
2022/12/05 11:15:13;;;;;;;0.20;0.10;;;;;;;;;;5086305;28;20143;-84
2022/12/05 11:17:39;;;;;;;0.20;0.10;;;;;;;;;;5074981;28;20067;-87
2022/12/05 11:20:17;;;;;;;0.20;0.10;;;;;;;;;;5076148;28;20132;-85
2022/12/05 11:22:45;;;;;;;0.20;0.10;;;;;;;;;;5056704;28;20047;-86
2022/12/05 11:25:26;;;;;;;0.20;0.10;;;;;;;;;;5080826;28;20123;-86
2022/12/05 11:27:52;;;;;;;0.20;0.10;;;;;;;;;;5056093;28;20048;-88
2022/12/05 11:30:19;;;;;;;0.20;0.20;;;;;;;;;;5074938;28;20028;-86
2022/12/05 11:32:45;;;;;;;0.20;0.10;;;;;;;;;;5058529;28;20032;-85
2022/12/05 11:35:13;;;;;;;0.20;0.10;;;;;;;;;;5060438;28;20131;-89
2022/12/05 11:37:43;;;;;;;0.20;0.10;;;;;;;;;;5071059;28;20049;-84
2022/12/05 11:40:32;;;;;;;0.20;0.10;;;;;;;;;;5054275;28;20131;-87
2022/12/05 11:43:17;;;;;;;0.20;0.10;;;;;;;;;;5068923;28;20437;-87
2022/12/05 11:45:50;;;;;;;0.30;0.20;;;;;;;;;;5070917;28;20105;-86
2022/12/05 11:48:22;;;;;;;0.20;0.10;;;;;;;;;;5066727;28;20472;-85
2022/12/05 11:51:03;;;;;;;0.20;0.10;;;;;;;;;;5067899;28;20493;-87
2022/12/05 11:53:32;;;;;;;0.20;0.10;;;;;;;;;;5084450;28;20051;-87
2022/12/05 11:56:09;;;;;;;0.35;0.30;;;;;;;;;;5065155;28;20040;-85
2022/12/05 11:59:05;;;;;;;0.20;0.10;;;;;;;;;;5076949;28;20131;-84
2022/12/05 12:01:46;;;;;;;0.20;0.10;;;;;;;;;;5021488;28;20083;-83
2022/12/05 12:04:12;;;;;;;0.20;0.10;;;;;;;;;;5087451;28;20414;-84
2022/12/05 12:06:46;;;;;;;0.20;0.10;;;;;;;;;;5082682;28;20041;-87
2022/12/05 12:09:31;;;;;;;0.20;0.17;;;;;;;;;;5082226;27;20291;-87
2022/12/05 12:12:02;;;;;;;0.30;0.22;;;;;;;;;;5071946;28;20127;-88
2022/12/05 12:14:34;;;;;;;0.20;0.10;;;;;;;;;;5056708;28;20546;-85
2022/12/05 12:17:19;;;;;;;0.20;0.10;;;;;;;;;;5050253;28;20127;-88
2022/12/05 12:20:04;;;;;;;0.20;0.10;;;;;;;;;;5070841;28;20033;-86
2022/12/05 12:22:39;;;;;;;0.20;0.10;;;;;;;;;;5063759;28;20056;-87
2022/12/05 12:25:23;;;;;;;0.20;0.10;;;;;;;;;;5082756;28;20116;-83
2022/12/05 12:28:04;;;;;;;0.20;0.10;;;;;;;;;;5068719;28;20046;-87
2022/12/05 12:30:45;;;;;;;0.20;0.20;;;;;;;;;;5075449;28;20032;-85
2022/12/05 12:33:15;;;;;;;0.20;0.10;;;;;;;;;;5072286;28;20541;-86
2022/12/05 12:35:49;;;;;;;0.20;0.10;;;;;;;;;;5089797;28;20105;-87
2022/12/05 12:38:25;;;;;;;0.20;0.10;;;;;;;;;;5082596;28;20068;-87
2022/12/05 12:40:53;;;;;;;0.20;0.10;;;;;;;;;;5070566;28;20055;-85
2022/12/05 12:43:22;;;;;;;0.20;0.10;;;;;;;;;;5048701;28;20491;-87
2022/12/05 12:45:56;;;;;;;0.20;0.10;;;;;;;;;;5062235;28;21555;-87
2022/12/05 12:48:40;;;;;;;0.20;0.10;;;;;;;;;;5060127;28;20041;-86
2022/12/05 12:51:11;;;;;;;0.20;0.10;;;;;;;;;;5050689;28;20033;-88
2022/12/05 12:53:52;;;;;;;0.20;0.10;;;;;;;;;;5052581;28;20556;-86
2022/12/05 12:56:29;;;;;;;0.20;0.10;;;;;;;;;;5051520;28;20048;-88
2022/12/05 12:59:02;;;;;;;0.20;0.10;;;;;;;;;;5082882;28;20036;-86
2022/12/05 13:01:40;;;;;;;1.20;0.73;;;;;;;;;;5067677;28;20047;-86
2022/12/05 13:04:17;;;;;;;0.20;0.10;;;;;;;;;;5066169;28;20040;-87
2022/12/05 13:06:55;;;;;;;0.20;0.10;;;;;;;;;;5060281;28;20502;-83
2022/12/05 13:09:43;;;;;;;0.20;0.10;;;;;;;;;;5069690;28;20045;-86
2022/12/05 13:12:16;;;;;;;0.20;0.10;;;;;;;;;;5082849;28;20085;-87
2022/12/05 13:14:51;;;;;;;0.20;0.10;;;;;;;;;;5081684;28;20540;-88
2022/12/05 13:17:19;;;;;;;0.20;0.10;;;;;;;;;;5070838;28;20067;-87
2022/12/05 13:19:49;;;;;;;0.20;0.10;;;;;;;;;;5056943;28;20054;-86
2022/12/05 13:22:20;;;;;;;0.20;0.10;;;;;;;;;;5057569;28;20060;-87
2022/12/05 13:24:46;;;;;;;0.20;0.10;;;;;;;;;;5072694;28;20533;-85
2022/12/05 13:27:17;;;;;;;0.20;0.10;;;;;;;;;;5066477;28;20079;-85
2022/12/05 13:29:46;;;;;;;0.20;0.10;;;;;;;;;;5080751;28;20037;-87
2022/12/05 13:32:24;;;;;;;0.20;0.10;;;;;;;;;;5048882;22;20128;-82
2022/12/05 13:34:50;;;;;;;0.20;0.10;;;;;;;;;;5008464;28;20567;-81
2022/12/05 13:43:03;;;;;;;0.80;0.80;;;;;;;;;;5008902;28;20041;-84
2022/12/05 13:45:29;;;;;;;0.20;0.10;;;;;;;;;;5007770;28;20045;-83
2022/12/05 13:47:58;;;;;;;0.20;0.10;;;;;;;;;;5009628;28;20249;-83
2022/12/05 13:50:28;;;;;;;0.20;0.10;;;;;;;;;;4995190;28;20069;-83
2022/12/05 13:52:56;;;;;;;0.20;0.10;;;;;;;;;;4996198;28;20098;-83
2022/12/05 13:55:22;;;;;;;0.20;0.10;;;;;;;;;;5013820;28;20041;-83
2022/12/05 13:57:49;;;;;;;0.20;0.10;;;;;;;;;;5008100;28;20041;-82
2022/12/05 14:00:15;;;;;;;0.20;0.10;;;;;;;;;;5000512;28;20390;-82
2022/12/05 14:02:45;;;;;;;0.20;0.10;;;;;;;;;;4996209;28;20664;-82
2022/12/05 14:05:20;;;;;;;0.20;0.10;;;;;;;;;;4991410;28;20503;-83
2022/12/05 14:07:47;;;;;;;0.20;0.10;;;;;;;;;;4999043;28;20113;-83
2022/12/05 14:10:15;;;;;;;0.20;0.10;;;;;;;;;;5016125;28;20043;-82
2022/12/05 14:12:50;;;;;;;0.20;0.10;;;;;;;;;;5004697;28;20041;-82
2022/12/05 14:15:34;;;;;;;0.20;0.10;;;;;;;;;;5014363;28;20041;-81
2022/12/05 14:18:14;;;;;;;0.20;0.10;;;;;;;;;;4993219;28;20068;-83
2022/12/05 14:20:40;;;;;;;0.20;0.10;;;;;;;;;;4999533;28;20071;-81
2022/12/05 14:23:12;;;;;;;0.75;0.50;;;;;;;;;;5032740;28;20045;-82
2022/12/05 14:25:57;;;;;;;0.20;0.10;;;;;;;;;;5017365;28;20049;-83
2022/12/05 14:28:38;;;;;;;0.30;0.30;;;;;;;;;;5003069;28;20488;-84
2022/12/05 14:31:24;;;;;;;0.20;0.10;;;;;;;;;;5015487;28;20038;-82
2022/12/05 14:34:09;;;;;;;0.20;0.20;;;;;;;;;;5024977;28;20106;-83
2022/12/05 14:36:37;;;;;;;0.20;0.10;;;;;;;;;;5024413;28;20052;-82
2022/12/05 14:39:19;;;;;;;0.20;0.10;;;;;;;;;;5019767;28;20057;-83
2022/12/05 14:41:46;;;;;;;0.20;0.10;;;;;;;;;;5027788;28;20049;-84
2022/12/05 14:44:19;;;;;;;0.20;0.10;;;;;;;;;;5000026;28;20254;-82
2022/12/05 14:46:45;;;;;;;0.20;0.10;;;;;;;;;;4994390;28;20304;-82
2022/12/05 14:49:30;;;;;;;0.20;0.10;;;;;;;;;;5014530;28;20030;-84
2022/12/05 14:51:56;;;;;;;0.20;0.10;;;;;;;;;;5013129;28;20144;-83
2022/12/05 14:54:26;;;;;;;0.20;0.10;;;;;;;;;;5016854;28;20041;-84
2022/12/05 14:56:59;;;;;;;0.20;0.10;;;;;;;;;;5000859;28;20033;-83
2022/12/05 14:59:25;;;;;;;0.20;0.10;;;;;;;;;;5001802;28;20041;-83
2022/12/05 15:01:55;;;;;;;0.20;0.10;;;;;;;;;;5020711;28;20044;-83
2022/12/05 15:04:27;;;;;;;0.20;0.10;;;;;;;;;;5002478;28;20041;-82
2022/12/05 15:06:53;;;;;;;0.52;0.52;;;;;;;;;;5016463;28;20045;-83
2022/12/05 15:09:38;;;;;;;0.20;0.10;;;;;;;;;;5014604;28;20416;-82
2022/12/05 15:12:06;;;;;;;0.30;0.20;;;;;;;;;;5011442;28;21917;-82
2022/12/05 15:14:34;;;;;;;0.20;0.10;;;;;;;;;;4999780;28;20260;-82
2022/12/05 15:17:00;;;;;;;0.20;0.20;;;;;;;;;;5007540;28;20155;-82